Página principal
METAR-TAF:

METAR-TAF

Aeroportos :

Merrill Field

Anchorage, Alasca, Estados Unidos

latitude: 61-13N, longitude: 149-51W, altura: 42 m

Observação actual do tempo

O boletim foi feito há 54 minutos, às 17:53 UTC
Vento 3 kt de oes-noroeste
Temperatura 11°C
Humidade 76%
Pressão 1016 hPa
Visibilidade: 16.1 km
Nuvens fragmentadasa uma altura de 1400 ft
Encobertoa uma altura de 11000 ft

METAR: PAMR 201753Z 30003KT 10SM BKN014 OVC110 11/07 A3001 RMK AO2 SLP165 T01110072 10111 20100 58003

Hora: 10:47 (18:47 UTC)


TAF: em falta

Observações e previsões do tempo de mais de 4000 aeroportos (mensagens METAR e TAF).

As estações disponíveis são os pontos amarelos e vermelhos sobre o mapa.

Mova o rato sobre o mapa para ver o nome da estação.

Depois clique no ponto para visualizar as observações e previsões meteorológicas.

Para alterar o mapa : clique nos botões verdes com uma cruz preta para aumentar o zoom; no botão verde com uma pitada de zoom; ou nas setas verdes para mapas adjacentes.


METAR-TAF: